Time;durP1;ratioP1;P1;durP2;ratioP2;P2;SDS_P1;SDS_P2;PMS_P1;PMS_P2;Temp;Humidity;BMP_temperature;BMP_pressure;BME280_temperature;BME280_humidity;BME280_pressure;Samples;Min_cycle;Max_cycle;Signal;HPM_P1;HPM_P2
2022/03/06 00:01:34;;;;;;;0.50;0.10;;;4.40;99.90;;;;;;4938150;29;20479;-75
2022/03/06 00:04:02;;;;;;;0.60;0.10;;;4.40;99.90;;;;;;4938082;29;20946;-74
2022/03/06 00:06:30;;;;;;;0.50;0.10;;;4.40;99.90;;;;;;4952172;29;20491;-74
2022/03/06 00:08:57;;;;;;;0.50;0.10;;;4.30;99.90;;;;;;4948069;29;20670;-76
2022/03/06 00:11:27;;;;;;;0.50;0.10;;;4.20;99.90;;;;;;4951247;29;20463;-75
2022/03/06 00:13:54;;;;;;;0.50;0.10;;;4.30;99.90;;;;;;4941386;29;20458;-74
2022/03/06 00:16:22;;;;;;;0.60;0.30;;;4.20;99.90;;;;;;4937579;29;20456;-75
2022/03/06 00:18:50;;;;;;;0.60;0.20;;;4.20;99.90;;;;;;4936090;29;20453;-74
2022/03/06 00:21:18;;;;;;;0.50;0.10;;;4.20;99.90;;;;;;4935067;29;20483;-76
2022/03/06 00:23:46;;;;;;;3.00;2.73;;;4.10;99.90;;;;;;4936432;29;20460;-75
2022/03/06 00:26:13;;;;;;;0.50;0.10;;;4.10;99.90;;;;;;4940341;29;20562;-73
2022/03/06 00:28:43;;;;;;;0.50;0.10;;;4.10;99.90;;;;;;4937704;29;20450;-74
2022/03/06 00:31:10;;;;;;;0.50;0.10;;;4.20;99.90;;;;;;4937358;29;20481;-74
2022/03/06 00:33:38;;;;;;;0.50;0.10;;;4.20;99.90;;;;;;4936479;29;21190;-75
2022/03/06 00:36:07;;;;;;;0.50;0.10;;;4.20;99.90;;;;;;4936412;29;21156;-76
2022/03/06 00:38:34;;;;;;;0.50;0.10;;;4.20;99.90;;;;;;4936702;29;20461;-76
2022/03/06 00:41:02;;;;;;;0.50;0.10;;;4.30;99.90;;;;;;4936780;29;20486;-76
2022/03/06 00:43:30;;;;;;;0.83;0.83;;;4.20;99.90;;;;;;4936727;29;20455;-77
2022/03/06 00:45:59;;;;;;;1.80;0.60;;;4.20;99.90;;;;;;4937649;29;20490;-76
2022/03/06 00:48:27;;;;;;;0.50;0.10;;;4.20;99.90;;;;;;4937145;29;20838;-75
2022/03/06 00:50:55;;;;;;;12.13;11.63;;;4.20;99.90;;;;;;4936408;29;20462;-75
2022/03/06 00:53:23;;;;;;;0.50;0.20;;;4.20;99.90;;;;;;4936670;29;20450;-74
2022/03/06 00:55:51;;;;;;;0.50;0.10;;;4.20;99.90;;;;;;4936911;29;20769;-76
2022/03/06 00:58:19;;;;;;;0.50;0.10;;;4.20;99.90;;;;;;4936824;29;20458;-76
2022/03/06 01:00:49;;;;;;;0.50;0.10;;;4.20;99.90;;;;;;4936781;29;20445;-76
2022/03/06 01:03:21;;;;;;;6.53;2.00;;;4.20;99.90;;;;;;4936790;29;20453;-76
2022/03/06 01:05:50;;;;;;;0.50;0.10;;;4.20;99.90;;;;;;4935889;29;20552;-75
2022/03/06 01:08:18;;;;;;;0.50;0.10;;;4.20;99.90;;;;;;4936430;29;20900;-75
2022/03/06 01:10:48;;;;;;;0.50;0.20;;;4.10;99.90;;;;;;4936721;29;20456;-76
2022/03/06 01:13:17;;;;;;;0.50;0.10;;;4.10;99.90;;;;;;4936937;29;20454;-74
2022/03/06 01:15:45;;;;;;;0.60;0.53;;;4.00;99.90;;;;;;4936687;29;20446;-76
2022/03/06 01:18:13;;;;;;;1.80;0.70;;;4.00;99.90;;;;;;4936463;29;20439;-77
2022/03/06 01:20:43;;;;;;;0.50;0.20;;;3.80;99.90;;;;;;4937616;29;20912;-76
2022/03/06 01:23:10;;;;;;;2.00;1.50;;;3.80;99.90;;;;;;4938084;29;20983;-74
2022/03/06 01:25:39;;;;;;;0.60;0.30;;;3.80;99.90;;;;;;4938025;29;20496;-74
2022/03/06 01:28:07;;;;;;;0.60;0.30;;;3.80;99.90;;;;;;4943360;29;20449;-75
2022/03/06 01:30:35;;;;;;;1.27;0.70;;;3.80;99.90;;;;;;4938390;29;20477;-75
2022/03/06 01:33:03;;;;;;;0.50;0.30;;;3.70;99.90;;;;;;4936561;29;20455;-75
2022/03/06 01:35:31;;;;;;;0.50;0.10;;;3.70;99.90;;;;;;4936690;29;20442;-75
2022/03/06 01:38:00;;;;;;;0.50;0.20;;;3.70;99.90;;;;;;4937081;29;20449;-75
2022/03/06 01:40:28;;;;;;;0.60;0.40;;;3.80;99.90;;;;;;4939284;29;20461;-76
2022/03/06 01:42:56;;;;;;;0.60;0.27;;;3.90;99.90;;;;;;4945664;29;20469;-75
2022/03/06 01:45:25;;;;;;;0.50;0.20;;;3.90;99.90;;;;;;4936453;29;20442;-74
2022/03/06 01:47:54;;;;;;;0.80;0.67;;;3.80;99.90;;;;;;4935373;29;21001;-74
2022/03/06 01:50:23;;;;;;;0.50;0.10;;;3.80;99.90;;;;;;4942880;29;20451;-75
2022/03/06 01:52:54;;;;;;;1.47;1.37;;;3.80;99.90;;;;;;4938998;29;20483;-75
2022/03/06 01:55:25;;;;;;;1.27;1.17;;;3.80;99.90;;;;;;4935530;29;20550;-74
2022/03/06 01:57:54;;;;;;;0.50;0.10;;;3.70;99.90;;;;;;4935227;29;20958;-72
2022/03/06 02:00:23;;;;;;;0.50;0.10;;;3.70;99.90;;;;;;4935360;29;20451;-75
2022/03/06 02:02:51;;;;;;;0.50;0.20;;;3.70;99.90;;;;;;4935232;29;20479;-73
2022/03/06 02:05:19;;;;;;;0.50;0.10;;;3.70;99.90;;;;;;4935093;29;20470;-73
2022/03/06 02:07:47;;;;;;;0.50;0.10;;;3.70;99.90;;;;;;4934959;29;20447;-75
2022/03/06 02:10:16;;;;;;;0.50;0.10;;;3.80;99.90;;;;;;4934688;29;20920;-74
2022/03/06 02:12:46;;;;;;;0.70;0.67;;;3.80;99.90;;;;;;4935570;29;20980;-74
2022/03/06 02:15:17;;;;;;;0.50;0.10;;;3.80;99.90;;;;;;4936112;29;20440;-75
2022/03/06 02:17:45;;;;;;;0.50;0.10;;;3.80;99.90;;;;;;4923149;29;20464;-72
2022/03/06 02:20:15;;;;;;;0.50;0.10;;;4.40;99.90;;;;;;4923648;29;20447;-74
2022/03/06 02:22:47;;;;;;;0.50;0.10;;;3.80;99.90;;;;;;4933401;29;20995;-75
2022/03/06 02:25:17;;;;;;;0.50;0.20;;;3.80;99.90;;;;;;4912427;29;20447;-74
2022/03/06 02:27:45;;;;;;;0.50;0.10;;;3.80;99.90;;;;;;4915896;29;20520;-74
2022/03/06 02:30:16;;;;;;;0.60;0.40;;;3.80;99.90;;;;;;4933918;29;20460;-74
2022/03/06 02:32:45;;;;;;;8.43;2.07;;;3.80;99.90;;;;;;4936312;29;20552;-73
2022/03/06 02:35:13;;;;;;;0.50;0.10;;;3.80;99.90;;;;;;4936669;29;20461;-75
2022/03/06 02:37:41;;;;;;;0.50;0.10;;;3.80;99.90;;;;;;4934962;29;20475;-75
2022/03/06 02:40:14;;;;;;;0.90;0.90;;;3.80;99.90;;;;;;4935109;29;20447;-74
2022/03/06 02:42:43;;;;;;;0.50;0.10;;;3.80;99.90;;;;;;4934992;29;20552;-74
2022/03/06 02:45:13;;;;;;;0.50;0.10;;;3.70;99.90;;;;;;4934705;29;20948;-75
2022/03/06 02:47:42;;;;;;;0.50;0.10;;;3.70;99.90;;;;;;4934856;29;20485;-73
2022/03/06 02:50:13;;;;;;;1.77;1.60;;;3.60;99.90;;;;;;4934899;29;20829;-74
2022/03/06 02:52:41;;;;;;;0.50;0.10;;;3.50;99.90;;;;;;4934685;29;20469;-74
2022/03/06 02:55:12;;;;;;;0.80;0.53;;;3.50;99.90;;;;;;4934317;29;20446;-74
2022/03/06 02:57:40;;;;;;;0.50;0.10;;;3.50;99.90;;;;;;4935704;29;20806;-74
2022/03/06 03:00:11;;;;;;;0.50;0.20;;;3.50;99.90;;;;;;4934925;29;20450;-75
2022/03/06 03:02:39;;;;;;;0.50;0.10;;;3.50;99.90;;;;;;4937439;29;20464;-75
2022/03/06 03:05:10;;;;;;;0.50;0.10;;;3.50;99.90;;;;;;4937906;29;20529;-74
2022/03/06 03:07:39;;;;;;;0.50;0.10;;;3.50;99.90;;;;;;4939537;29;20504;-75
2022/03/06 03:10:08;;;;;;;0.50;0.10;;;3.50;99.90;;;;;;4940684;29;20467;-74
2022/03/06 03:12:37;;;;;;;0.50;0.30;;;3.50;99.90;;;;;;4944158;29;20539;-74
2022/03/06 03:15:07;;;;;;;0.50;0.10;;;3.40;99.90;;;;;;4940350;29;20451;-74
2022/03/06 03:17:35;;;;;;;0.50;0.10;;;3.40;99.90;;;;;;4940040;29;20446;-75
2022/03/06 03:20:03;;;;;;;7.03;1.07;;;3.40;99.90;;;;;;4939699;29;20469;-75
2022/03/06 03:22:31;;;;;;;0.90;0.80;;;3.30;99.90;;;;;;4942651;29;20477;-74
2022/03/06 03:24:59;;;;;;;0.50;0.10;;;3.20;99.90;;;;;;4944061;29;20449;-73
2022/03/06 03:27:27;;;;;;;0.60;0.40;;;3.20;99.90;;;;;;4943410;29;20487;-74
2022/03/06 03:29:56;;;;;;;0.50;0.10;;;3.20;99.90;;;;;;4941594;29;20459;-73
2022/03/06 03:32:24;;;;;;;0.50;0.20;;;3.20;99.90;;;;;;4944751;29;20479;-73
2022/03/06 03:34:52;;;;;;;0.50;0.10;;;3.10;99.90;;;;;;4940771;29;20855;-73
2022/03/06 03:37:19;;;;;;;0.50;0.20;;;3.10;99.90;;;;;;4935867;29;20444;-74
2022/03/06 03:39:47;;;;;;;0.50;0.10;;;3.10;99.90;;;;;;4937559;29;20448;-74
2022/03/06 03:42:15;;;;;;;0.50;0.10;;;3.10;99.90;;;;;;4938708;29;20468;-73
2022/03/06 03:44:43;;;;;;;0.50;0.10;;;3.00;99.90;;;;;;4937292;29;20457;-73
2022/03/06 03:47:12;;;;;;;0.50;0.10;;;3.00;99.90;;;;;;4936113;29;20535;-73
2022/03/06 03:49:40;;;;;;;0.50;0.10;;;2.90;99.90;;;;;;4935703;29;20455;-74
2022/03/06 03:52:08;;;;;;;0.50;0.20;;;2.90;99.90;;;;;;4935502;29;20526;-74
2022/03/06 03:54:36;;;;;;;0.60;0.27;;;2.90;99.90;;;;;;4935201;29;20548;-73
2022/03/06 03:57:05;;;;;;;0.50;0.10;;;2.80;99.90;;;;;;4934881;29;20440;-74
2022/03/06 03:59:33;;;;;;;0.50;0.20;;;2.70;99.90;;;;;;4934473;29;20953;-74
2022/03/06 04:02:00;;;;;;;0.60;0.10;;;2.70;99.90;;;;;;4934856;29;20478;-73
2022/03/06 04:04:30;;;;;;;0.60;0.37;;;2.60;99.90;;;;;;4937275;29;20451;-73
2022/03/06 04:06:58;;;;;;;0.80;0.77;;;2.60;99.90;;;;;;4935656;29;20482;-73
2022/03/06 04:09:25;;;;;;;0.50;0.10;;;2.60;99.90;;;;;;4937778;29;20444;-74
2022/03/06 04:11:53;;;;;;;0.50;0.10;;;2.50;99.90;;;;;;4937626;29;20562;-74
2022/03/06 04:14:21;;;;;;;0.90;0.50;;;2.50;99.90;;;;;;4937587;29;20444;-74
2022/03/06 04:16:49;;;;;;;0.50;0.20;;;2.50;99.90;;;;;;4932662;29;20515;-74
2022/03/06 04:19:17;;;;;;;1.20;1.17;;;2.50;99.90;;;;;;4927428;29;20444;-74
2022/03/06 04:21:46;;;;;;;1.00;0.83;;;2.40;99.90;;;;;;4933070;29;20505;-73
2022/03/06 04:24:14;;;;;;;0.70;0.50;;;2.40;99.90;;;;;;4941065;29;20816;-74
2022/03/06 04:26:42;;;;;;;0.50;0.10;;;2.40;99.90;;;;;;4946391;29;20451;-74
2022/03/06 04:29:10;;;;;;;0.77;0.77;;;2.40;99.90;;;;;;4949466;29;20458;-73
2022/03/06 04:31:37;;;;;;;0.60;0.20;;;2.40;99.90;;;;;;4945756;29;20480;-72
2022/03/06 04:34:05;;;;;;;0.60;0.30;;;2.40;99.90;;;;;;4942054;29;20462;-73
2022/03/06 04:36:33;;;;;;;0.50;0.20;;;2.40;99.90;;;;;;4943539;29;20469;-74
2022/03/06 04:39:03;;;;;;;1.43;1.33;;;2.40;99.90;;;;;;4941476;29;20450;-73
2022/03/06 04:41:31;;;;;;;0.60;0.30;;;2.40;99.90;;;;;;4942956;29;20478;-73
2022/03/06 04:43:59;;;;;;;0.50;0.10;;;2.30;99.90;;;;;;4941403;29;20936;-74
2022/03/06 04:46:27;;;;;;;0.50;0.10;;;2.30;99.90;;;;;;4939692;29;20448;-73
2022/03/06 04:48:55;;;;;;;4.37;2.50;;;2.20;99.90;;;;;;4939683;29;20484;-74
2022/03/06 04:51:22;;;;;;;0.50;0.27;;;2.20;99.90;;;;;;4939045;29;20468;-73
2022/03/06 04:53:50;;;;;;;0.60;0.10;;;2.20;99.90;;;;;;4939476;29;20452;-73
2022/03/06 04:56:19;;;;;;;0.50;0.10;;;2.20;99.90;;;;;;4938302;29;20456;-73
2022/03/06 04:58:47;;;;;;;0.50;0.17;;;2.30;99.90;;;;;;4936911;29;20455;-74
2022/03/06 05:01:15;;;;;;;0.73;0.40;;;2.30;99.90;;;;;;4937341;29;20471;-73
2022/03/06 05:03:48;;;;;;;2.10;2.00;;;2.20;99.90;;;;;;4945961;29;20432;-73
2022/03/06 05:06:16;;;;;;;0.50;0.10;;;2.20;99.90;;;;;;4956167;29;20491;-74
2022/03/06 05:08:44;;;;;;;0.50;0.10;;;2.20;99.90;;;;;;4939496;29;20899;-73
2022/03/06 05:11:12;;;;;;;0.50;0.10;;;2.20;99.90;;;;;;4936993;29;20476;-73
2022/03/06 05:13:41;;;;;;;0.50;0.10;;;2.20;99.90;;;;;;4936835;29;20457;-72
2022/03/06 05:16:09;;;;;;;14.27;12.83;;;2.20;99.90;;;;;;4937459;29;20495;-74
2022/03/06 05:18:37;;;;;;;0.63;0.63;;;2.20;99.90;;;;;;4937730;29;20444;-73
2022/03/06 05:21:05;;;;;;;0.50;0.10;;;2.20;99.90;;;;;;4939329;29;20473;-73
2022/03/06 05:23:33;;;;;;;1.80;1.70;;;2.20;99.90;;;;;;4938057;29;20535;-74
2022/03/06 05:26:01;;;;;;;7.47;7.17;;;2.20;99.90;;;;;;4935696;29;20458;-73
2022/03/06 05:28:29;;;;;;;0.60;0.30;;;2.30;99.90;;;;;;4936678;29;20490;-74
2022/03/06 05:30:58;;;;;;;0.60;0.40;;;2.30;99.90;;;;;;4948939;29;20467;-73
2022/03/06 05:33:26;;;;;;;2.43;1.60;;;2.30;99.90;;;;;;4945429;29;20546;-73
2022/03/06 05:35:54;;;;;;;0.50;0.20;;;2.20;99.90;;;;;;4937143;29;20543;-73
2022/03/06 05:38:21;;;;;;;2.40;1.37;;;2.20;99.90;;;;;;4936073;29;20948;-73
2022/03/06 05:40:49;;;;;;;0.50;0.10;;;2.10;99.90;;;;;;4936477;29;20533;-74
2022/03/06 05:43:17;;;;;;;0.60;0.30;;;2.10;99.90;;;;;;4938127;29;20786;-73
2022/03/06 05:45:50;;;;;;;1.10;0.63;;;2.10;99.90;;;;;;4938167;29;20480;-73
2022/03/06 05:48:19;;;;;;;1.07;0.70;;;2.10;99.90;;;;;;4937897;29;20567;-74
2022/03/06 05:50:48;;;;;;;0.50;0.10;;;2.10;99.90;;;;;;4936247;29;20428;-74
2022/03/06 05:53:16;;;;;;;0.50;0.10;;;2.10;99.90;;;;;;4935811;29;20467;-74
2022/03/06 05:55:44;;;;;;;0.50;0.20;;;2.10;99.90;;;;;;4936172;29;20447;-74
2022/03/06 05:58:12;;;;;;;0.50;0.10;;;2.10;99.90;;;;;;4936215;29;20467;-74
2022/03/06 06:00:39;;;;;;;0.60;0.20;;;2.00;99.90;;;;;;4930604;29;20861;-74
2022/03/06 06:03:07;;;;;;;0.60;0.23;;;2.00;99.90;;;;;;4917978;29;21023;-74
2022/03/06 06:05:38;;;;;;;0.63;0.50;;;2.00;99.90;;;;;;4922452;29;20476;-73
2022/03/06 06:08:06;;;;;;;0.50;0.10;;;2.10;99.90;;;;;;4939690;29;20476;-74
2022/03/06 06:10:34;;;;;;;0.50;0.10;;;2.00;99.90;;;;;;4939554;29;20453;-74
2022/03/06 06:13:02;;;;;;;0.50;0.10;;;2.10;99.90;;;;;;4923658;29;20469;-76
2022/03/06 06:15:30;;;;;;;0.90;0.73;;;2.10;99.90;;;;;;4919645;29;20539;-74
2022/03/06 06:17:58;;;;;;;1.50;1.40;;;2.10;99.90;;;;;;4934260;29;20444;-73
2022/03/06 06:20:26;;;;;;;0.50;0.20;;;2.10;99.90;;;;;;4935012;29;20449;-74
2022/03/06 06:22:55;;;;;;;0.90;0.70;;;2.10;99.90;;;;;;4936003;29;20484;-74
2022/03/06 06:25:22;;;;;;;0.60;0.30;;;2.00;99.90;;;;;;4935838;29;20456;-74
2022/03/06 06:27:50;;;;;;;0.50;0.27;;;2.10;99.90;;;;;;4936625;29;20452;-73
2022/03/06 06:30:18;;;;;;;0.50;0.20;;;2.10;99.90;;;;;;4935872;29;20452;-74
2022/03/06 06:32:46;;;;;;;0.50;0.10;;;2.10;99.90;;;;;;4936194;29;20820;-74
2022/03/06 06:35:14;;;;;;;0.50;0.20;;;2.20;99.90;;;;;;4935806;29;20480;-74
2022/03/06 06:37:42;;;;;;;0.50;0.20;;;2.20;99.90;;;;;;4919974;29;20449;-73
2022/03/06 06:40:11;;;;;;;0.60;0.30;;;2.20;99.90;;;;;;4918480;29;20928;-74
2022/03/06 06:42:39;;;;;;;0.50;0.10;;;2.30;99.90;;;;;;4923078;29;20476;-73
2022/03/06 06:45:08;;;;;;;1.70;0.70;;;2.30;99.90;;;;;;4942053;29;20456;-72
2022/03/06 06:47:36;;;;;;;1.67;1.07;;;2.30;99.90;;;;;;4938066;29;20453;-74
2022/03/06 06:50:05;;;;;;;1.17;0.87;;;2.40;99.90;;;;;;4937987;29;20506;-73
2022/03/06 06:52:32;;;;;;;0.50;0.10;;;2.40;99.90;;;;;;4936262;29;20526;-73
2022/03/06 06:55:00;;;;;;;0.60;0.43;;;2.40;99.90;;;;;;4927639;29;20473;-74
2022/03/06 06:57:30;;;;;;;0.50;0.10;;;2.40;99.90;;;;;;4917137;29;20452;-74
2022/03/06 06:59:58;;;;;;;0.67;0.40;;;;;;;;;;4924031;29;20451;-73
2022/03/06 07:02:26;;;;;;;0.50;0.10;;;2.50;99.90;;;;;;4937334;29;20471;-73
2022/03/06 07:04:59;;;;;;;0.50;0.10;;;2.50;99.90;;;;;;4935908;29;20448;-73
2022/03/06 07:07:27;;;;;;;2.83;2.63;;;2.50;99.90;;;;;;4936840;29;20436;-73
2022/03/06 07:09:55;;;;;;;97.93;56.60;;;2.60;99.90;;;;;;4944927;29;20490;-74
2022/03/06 07:12:22;;;;;;;0.50;0.10;;;2.60;99.90;;;;;;4944969;29;20467;-73
2022/03/06 07:14:51;;;;;;;0.50;0.10;;;2.60;99.90;;;;;;4913523;29;20473;-74
2022/03/06 07:17:19;;;;;;;0.50;0.20;;;2.60;99.90;;;;;;4918347;29;20478;-72
2022/03/06 07:19:47;;;;;;;3.13;0.60;;;2.60;99.90;;;;;;4936020;29;20485;-73
2022/03/06 07:22:16;;;;;;;0.50;0.10;;;2.60;99.90;;;;;;4940115;29;20476;-74
2022/03/06 07:24:43;;;;;;;0.50;0.10;;;2.60;99.90;;;;;;4944713;29;20642;-74
2022/03/06 07:27:11;;;;;;;1.40;1.30;;;2.70;99.90;;;;;;4938969;29;20786;-74
2022/03/06 07:29:39;;;;;;;0.50;0.20;;;2.70;99.90;;;;;;4941117;29;20485;-74
2022/03/06 07:32:09;;;;;;;0.50;0.10;;;2.80;99.90;;;;;;4938921;29;20472;-73
2022/03/06 07:34:37;;;;;;;4.10;2.20;;;2.80;99.90;;;;;;4939078;29;20825;-75
2022/03/06 07:37:05;;;;;;;0.50;0.10;;;2.80;99.90;;;;;;4937750;29;20797;-74
2022/03/06 07:39:33;;;;;;;0.50;0.20;;;2.90;99.90;;;;;;4928923;29;21002;-75
2022/03/06 07:42:01;;;;;;;0.50;0.10;;;2.90;99.90;;;;;;4926470;29;20930;-75
2022/03/06 07:44:28;;;;;;;0.70;0.57;;;3.00;99.90;;;;;;4933248;29;20482;-73
2022/03/06 07:46:56;;;;;;;0.80;0.77;;;3.00;99.90;;;;;;4934665;29;20446;-75
2022/03/06 07:49:25;;;;;;;0.60;0.10;;;3.10;99.90;;;;;;4956325;29;20527;-74
2022/03/06 07:51:53;;;;;;;0.50;0.10;;;3.20;99.90;;;;;;4956301;29;20526;-74
2022/03/06 07:54:21;;;;;;;0.60;0.40;;;3.20;99.90;;;;;;4956792;29;20430;-74
2022/03/06 07:56:49;;;;;;;0.70;0.70;;;3.30;99.90;;;;;;4951718;29;20427;-75
2022/03/06 07:59:17;;;;;;;0.50;0.10;;;3.40;99.90;;;;;;4954229;29;20444;-73
2022/03/06 08:01:45;;;;;;;0.50;0.20;;;3.40;99.90;;;;;;4951323;29;20479;-73
2022/03/06 08:04:13;;;;;;;0.50;0.10;;;3.50;99.90;;;;;;4944111;29;20453;-73
2022/03/06 08:06:42;;;;;;;0.50;0.10;;;3.60;99.90;;;;;;4942075;29;20533;-74
2022/03/06 08:09:10;;;;;;;0.50;0.30;;;3.60;99.90;;;;;;4930385;29;20487;-74
2022/03/06 08:11:38;;;;;;;0.50;0.10;;;3.70;99.90;;;;;;4920109;29;20467;-74
2022/03/06 08:14:06;;;;;;;0.50;0.10;;;3.80;99.90;;;;;;4922867;29;20456;-74
2022/03/06 08:16:33;;;;;;;0.90;0.40;;;4.00;99.90;;;;;;4926127;29;20445;-73
2022/03/06 08:19:01;;;;;;;0.50;0.10;;;4.00;99.90;;;;;;4924141;29;20482;-74
2022/03/06 08:21:29;;;;;;;0.50;0.10;;;4.00;99.90;;;;;;4929765;29;20497;-73
2022/03/06 08:23:58;;;;;;;21.17;8.40;;;4.10;99.90;;;;;;4931243;29;20464;-74
2022/03/06 08:26:26;;;;;;;0.90;0.40;;;4.20;99.90;;;;;;4940307;29;20530;-74
2022/03/06 08:28:54;;;;;;;0.60;0.30;;;4.20;99.90;;;;;;4943350;29;20451;-74
2022/03/06 08:31:22;;;;;;;0.50;0.10;;;4.30;99.90;;;;;;4942571;29;20558;-74
2022/03/06 08:33:52;;;;;;;0.50;0.20;;;4.30;99.90;;;;;;4943383;29;20539;-74
2022/03/06 08:36:20;;;;;;;0.70;0.50;;;4.30;99.90;;;;;;4942677;29;20476;-75
2022/03/06 08:38:48;;;;;;;0.50;0.20;;;4.30;99.90;;;;;;4940460;29;20854;-74
2022/03/06 08:41:17;;;;;;;3.33;0.60;;;4.40;99.90;;;;;;4952942;29;20470;-74
2022/03/06 08:43:45;;;;;;;0.50;0.10;;;4.40;99.90;;;;;;4943471;29;20441;-74
2022/03/06 08:46:12;;;;;;;0.50;0.10;;;4.40;99.90;;;;;;4931870;29;20974;-74
2022/03/06 08:48:40;;;;;;;0.70;0.50;;;4.40;99.90;;;;;;4924752;29;20448;-74
2022/03/06 08:51:09;;;;;;;2.30;1.90;;;4.30;99.90;;;;;;4921465;29;20567;-73
2022/03/06 08:53:41;;;;;;;0.50;0.10;;;4.30;99.90;;;;;;4923353;29;20449;-75
2022/03/06 08:56:09;;;;;;;0.50;0.20;;;4.30;99.90;;;;;;4939588;29;20467;-75
2022/03/06 08:58:39;;;;;;;0.50;0.10;;;4.40;99.90;;;;;;4937545;29;20468;-75
2022/03/06 09:01:07;;;;;;;0.50;0.10;;;4.40;99.90;;;;;;4924855;29;20468;-74
2022/03/06 09:03:59;;;;;;;0.70;0.60;;;4.50;99.90;;;;;;4924006;29;20446;-74
2022/03/06 09:06:27;;;;;;;0.50;0.10;;;4.50;99.90;;;;;;4923287;29;20454;-74
2022/03/06 09:08:56;;;;;;;5.20;4.83;;;4.60;99.90;;;;;;4923138;29;20449;-76
2022/03/06 09:11:24;;;;;;;0.50;0.10;;;4.70;99.90;;;;;;4930623;29;20587;-74
2022/03/06 09:13:53;;;;;;;0.50;0.10;;;4.70;99.90;;;;;;4931087;29;20466;-74
2022/03/06 09:16:21;;;;;;;0.50;0.10;;;4.80;99.90;;;;;;4927723;29;20446;-75
2022/03/06 09:18:49;;;;;;;0.60;0.20;;;4.90;99.90;;;;;;4922838;29;20578;-74
2022/03/06 09:21:17;;;;;;;0.50;0.10;;;5.00;99.90;;;;;;4923548;29;20473;-75
2022/03/06 09:23:46;;;;;;;0.50;0.10;;;5.10;99.90;;;;;;4979710;23;20567;-73
2022/03/06 09:26:14;;;;;;;0.60;0.10;;;5.10;99.90;;;;;;4963023;29;20515;-73
2022/03/06 09:28:42;;;;;;;0.60;0.47;;;5.20;99.90;;;;;;4951172;29;20485;-72
2022/03/06 09:31:11;;;;;;;2.50;1.40;;;5.30;99.90;;;;;;4943075;29;20489;-72
2022/03/06 09:33:40;;;;;;;0.70;0.50;;;5.40;99.90;;;;;;4926355;29;20466;-72
2022/03/06 09:36:08;;;;;;;0.50;0.10;;;5.40;99.90;;;;;;4922194;29;20453;-73
2022/03/06 09:38:38;;;;;;;0.50;0.10;;;5.40;99.90;;;;;;4922660;29;20454;-72
2022/03/06 09:41:06;;;;;;;0.60;0.10;;;5.40;99.90;;;;;;4921704;29;20452;-73
2022/03/06 09:43:34;;;;;;;0.83;0.63;;;5.50;99.90;;;;;;4920754;29;20539;-74
2022/03/06 09:46:05;;;;;;;2.60;1.60;;;5.60;99.90;;;;;;4934912;29;20461;-73
2022/03/06 09:48:36;;;;;;;0.50;0.10;;;;;;;;;;4918902;29;20471;-73
2022/03/06 09:51:06;;;;;;;0.50;0.10;;;5.60;99.90;;;;;;4919205;29;20486;-73
2022/03/06 09:53:34;;;;;;;1.20;0.83;;;5.70;99.90;;;;;;4921831;29;20541;-73
2022/03/06 09:56:02;;;;;;;0.60;0.10;;;5.80;99.90;;;;;;4919235;29;20557;-74
2022/03/06 09:58:30;;;;;;;0.50;0.10;;;5.80;99.90;;;;;;4918847;29;20456;-73
2022/03/06 10:01:01;;;;;;;0.60;0.40;;;6.00;99.90;;;;;;4920709;29;20457;-73
2022/03/06 10:03:36;;;;;;;0.50;0.20;;;6.00;99.90;;;;;;4937104;29;20512;-73
2022/03/06 10:06:07;;;;;;;0.60;0.30;;;6.00;99.90;;;;;;4939955;29;20955;-72
2022/03/06 10:08:36;;;;;;;4.93;1.50;;;6.10;99.90;;;;;;4939159;29;20534;-74
2022/03/06 10:11:10;;;;;;;0.50;0.10;;;6.20;99.90;;;;;;4940776;29;20488;-73
2022/03/06 10:13:41;;;;;;;2.13;1.57;;;6.20;99.90;;;;;;4939563;29;20569;-73
2022/03/06 10:16:14;;;;;;;3.03;2.13;;;6.30;99.90;;;;;;4940017;29;20545;-73
2022/03/06 10:18:47;;;;;;;0.70;0.60;;;6.30;99.90;;;;;;4938756;29;20461;-73
2022/03/06 10:21:22;;;;;;;0.57;0.10;;;6.40;99.90;;;;;;4937839;29;20448;-73
2022/03/06 10:23:54;;;;;;;3.23;2.20;;;6.40;99.90;;;;;;4936914;29;20569;-74
2022/03/06 10:26:23;;;;;;;0.70;0.50;;;6.40;99.90;;;;;;4937612;29;20444;-73
2022/03/06 10:28:56;;;;;;;0.50;0.10;;;6.40;99.90;;;;;;4936710;29;20454;-73
2022/03/06 10:31:26;;;;;;;0.50;0.10;;;6.30;99.90;;;;;;4937055;29;20521;-73
2022/03/06 10:33:58;;;;;;;0.50;0.10;;;6.20;99.90;;;;;;4938047;29;20556;-73
2022/03/06 10:36:37;;;;;;;0.50;0.30;;;;;;;;;;4935785;29;20462;-73
2022/03/06 10:39:14;;;;;;;0.80;0.43;;;6.10;99.90;;;;;;4937034;29;20462;-74
2022/03/06 10:41:45;;;;;;;1.83;1.33;;;6.10;99.90;;;;;;4937122;29;20451;-74
2022/03/06 10:44:14;;;;;;;0.50;0.20;;;6.10;99.90;;;;;;4939420;29;20448;-73
2022/03/06 10:46:57;;;;;;;5.70;1.03;;;6.10;99.90;;;;;;4942064;29;20848;-73
2022/03/06 10:49:26;;;;;;;0.50;0.10;;;6.20;99.90;;;;;;4938486;29;20454;-73
2022/03/06 10:51:58;;;;;;;1.33;1.23;;;6.20;99.90;;;;;;4939959;29;20479;-73
2022/03/06 10:54:25;;;;;;;2.00;0.97;;;6.20;99.90;;;;;;4940016;29;20819;-73
2022/03/06 10:57:10;;;;;;;0.73;0.63;;;6.00;99.90;;;;;;4940889;29;20450;-74
2022/03/06 10:59:41;;;;;;;0.60;0.30;;;6.00;99.90;;;;;;4943469;29;20476;-73
2022/03/06 11:02:12;;;;;;;0.70;0.63;;;6.10;99.90;;;;;;4949371;29;21124;-73
2022/03/06 11:04:43;;;;;;;1.00;0.33;;;6.10;99.90;;;;;;4946841;29;20459;-73
2022/03/06 11:07:12;;;;;;;0.73;0.63;;;6.20;99.90;;;;;;4937041;29;20465;-73
2022/03/06 11:09:41;;;;;;;2.00;1.20;;;6.20;99.90;;;;;;4934438;29;20779;-73
2022/03/06 11:12:11;;;;;;;0.60;0.10;;;6.30;99.90;;;;;;4932812;29;20930;-73
2022/03/06 11:14:41;;;;;;;0.80;0.60;;;6.30;99.90;;;;;;4927206;29;20453;-73
2022/03/06 11:17:09;;;;;;;0.87;0.87;;;6.40;99.90;;;;;;4926273;29;20494;-74
2022/03/06 11:19:38;;;;;;;0.60;0.20;;;6.50;99.90;;;;;;4921051;29;20795;-73
2022/03/06 11:22:14;;;;;;;3.93;3.57;;;6.50;99.90;;;;;;4930703;29;20487;-73
2022/03/06 11:24:48;;;;;;;1.13;1.13;;;6.50;99.90;;;;;;4954026;29;20454;-74
2022/03/06 11:27:43;;;;;;;1.13;0.70;;;6.50;99.90;;;;;;4958234;28;20525;-73
2022/03/06 11:30:18;;;;;;;0.97;0.73;;;6.60;99.90;;;;;;4956611;29;20541;-75
2022/03/06 11:32:48;;;;;;;1.33;1.23;;;6.50;99.90;;;;;;4939696;29;20866;-73
2022/03/06 11:35:19;;;;;;;0.50;0.10;;;6.50;99.90;;;;;;4939188;29;20454;-73
2022/03/06 11:37:55;;;;;;;0.60;0.20;;;6.60;99.90;;;;;;4939568;29;20550;-72
2022/03/06 11:40:45;;;;;;;1.03;0.77;;;6.70;99.90;;;;;;4941475;29;20468;-73
2022/03/06 11:43:33;;;;;;;0.63;0.40;;;6.80;99.90;;;;;;4940294;29;20507;-74
2022/03/06 11:46:16;;;;;;;0.80;0.30;;;6.90;99.90;;;;;;4942464;29;20477;-74
2022/03/06 11:49:11;;;;;;;2.60;2.40;;;7.00;99.90;;;;;;4940980;29;20453;-73
2022/03/06 11:51:45;;;;;;;0.60;0.10;;;7.10;99.90;;;;;;4939259;29;20997;-74
2022/03/06 11:54:25;;;;;;;0.60;0.10;;;7.20;99.90;;;;;;4938816;29;20961;-74
2022/03/06 11:56:56;;;;;;;1.07;0.37;;;7.20;99.90;;;;;;4938778;29;20544;-74
2022/03/06 11:59:39;;;;;;;1.27;0.87;;;7.40;99.90;;;;;;4940125;29;20820;-73
2022/03/06 12:02:25;;;;;;;0.60;0.20;;;;;;;;;;4940451;29;20473;-73
2022/03/06 12:04:56;;;;;;;1.63;1.53;;;7.40;99.90;;;;;;4940312;29;20454;-73
2022/03/06 12:07:26;;;;;;;0.70;0.30;;;7.40;99.90;;;;;;4940266;29;20431;-73
2022/03/06 12:09:56;;;;;;;0.60;0.10;;;7.40;99.90;;;;;;4941917;29;20441;-73
2022/03/06 12:12:25;;;;;;;0.50;0.10;;;7.40;99.90;;;;;;4940281;29;20481;-74
2022/03/06 12:14:56;;;;;;;2.20;1.10;;;7.40;99.90;;;;;;4941119;29;20455;-73
2022/03/06 12:17:37;;;;;;;1.63;0.93;;;7.30;99.90;;;;;;4928554;29;20447;-74
2022/03/06 12:20:30;;;;;;;0.50;0.10;;;7.30;99.90;;;;;;4927819;29;20574;-73
2022/03/06 12:23:08;;;;;;;0.50;0.10;;;7.40;99.90;;;;;;4926472;29;20559;-72
2022/03/06 12:25:40;;;;;;;0.60;0.10;;;7.50;99.90;;;;;;4928380;29;20454;-74
2022/03/06 12:28:16;;;;;;;0.50;0.10;;;7.70;99.90;;;;;;4921214;29;20889;-74
2022/03/06 12:30:44;;;;;;;0.60;0.10;;;7.70;99.90;;;;;;4928201;29;20466;-74
2022/03/06 12:33:27;;;;;;;3.70;0.87;;;7.90;99.90;;;;;;4928417;29;20510;-74
2022/03/06 12:36:13;;;;;;;0.50;0.10;;;7.90;99.90;;;;;;4923114;29;20461;-73
2022/03/06 12:38:41;;;;;;;1.57;1.47;;;7.90;99.90;;;;;;4919630;29;20810;-74
2022/03/06 12:41:11;;;;;;;0.80;0.57;;;7.90;99.90;;;;;;4919823;29;20459;-73
2022/03/06 12:43:47;;;;;;;0.60;0.10;;;7.80;99.90;;;;;;4921279;29;20503;-73
2022/03/06 12:46:16;;;;;;;1.27;0.93;;;7.80;99.90;;;;;;4936501;29;20465;-72
2022/03/06 12:48:47;;;;;;;0.60;0.10;;;7.80;99.90;;;;;;4920049;29;20485;-73
2022/03/06 12:51:27;;;;;;;0.60;0.17;;;7.90;99.90;;;;;;4924515;29;20465;-73
2022/03/06 12:53:55;;;;;;;0.60;0.10;;;8.00;99.90;;;;;;4922499;29;20470;-73
2022/03/06 12:56:39;;;;;;;0.60;0.10;;;8.10;99.90;;;;;;4921147;29;20470;-73
2022/03/06 12:59:15;;;;;;;0.60;0.10;;;8.30;99.90;;;;;;4920841;29;20456;-73
2022/03/06 13:01:45;;;;;;;1.30;1.20;;;8.30;99.90;;;;;;4925002;29;20459;-73
2022/03/06 13:04:15;;;;;;;0.60;0.20;;;8.30;99.90;;;;;;4919006;29;20444;-73
2022/03/06 13:06:44;;;;;;;1.10;0.70;;;8.30;99.90;;;;;;4921261;29;20449;-74
2022/03/06 13:09:23;;;;;;;0.67;0.43;;;8.40;99.90;;;;;;4919595;29;20451;-73
2022/03/06 13:11:52;;;;;;;0.60;0.10;;;8.50;99.90;;;;;;4918889;29;20487;-73